createdAt,value
2019-02-12T00:01:04.391Z,92.30
2019-02-12T00:03:30.771Z,92.70
2019-02-12T00:05:57.329Z,92.90
2019-02-12T00:08:23.957Z,92.30
2019-02-12T00:10:50.509Z,91.80
2019-02-12T00:13:16.912Z,91.30
2019-02-12T00:15:43.422Z,91.30
2019-02-12T00:18:09.813Z,91.20
2019-02-12T00:20:36.340Z,91.30
2019-02-12T00:23:02.832Z,91.30
2019-02-12T00:25:29.413Z,90.90
2019-02-12T00:27:55.850Z,90.90
2019-02-12T00:30:22.226Z,90.80
2019-02-12T00:32:48.752Z,90.50
2019-02-12T00:35:15.208Z,90.40
2019-02-12T00:37:41.751Z,90.60
2019-02-12T00:40:08.432Z,91.20
2019-02-12T00:42:34.919Z,90.50
2019-02-12T00:45:01.455Z,90.30
2019-02-12T00:47:27.969Z,90.60
2019-02-12T00:49:54.332Z,91.70
2019-02-12T00:52:20.857Z,92.70
2019-02-12T00:54:47.154Z,93.30
2019-02-12T00:57:13.447Z,93.60
2019-02-12T00:59:39.888Z,92.70
2019-02-12T01:02:06.193Z,91.90
2019-02-12T01:04:32.757Z,91.70
2019-02-12T01:06:59.245Z,91.80
2019-02-12T01:09:25.700Z,91.90
2019-02-12T01:11:52.313Z,91.90
2019-02-12T01:14:18.829Z,92.00
2019-02-12T01:16:45.226Z,92.10
2019-02-12T01:19:11.757Z,93.10
2019-02-12T01:21:38.453Z,93.10
2019-02-12T01:24:04.941Z,92.80
2019-02-12T01:26:31.335Z,92.70
2019-02-12T01:28:57.846Z,92.80
2019-02-12T01:31:24.391Z,92.90
2019-02-12T01:33:50.913Z,93.10
2019-02-12T01:36:17.369Z,93.60
2019-02-12T01:38:43.783Z,94.30
2019-02-12T01:41:10.200Z,94.50
2019-02-12T01:43:36.710Z,94.50
2019-02-12T01:46:03.270Z,94.50
2019-02-12T01:48:30.117Z,94.50
2019-02-12T01:50:58.623Z,94.40
2019-02-12T01:53:25.280Z,94.10
2019-02-12T01:55:51.665Z,93.90
2019-02-12T01:58:18.394Z,93.50
2019-02-12T02:00:45.027Z,93.30
2019-02-12T02:03:11.415Z,93.80
2019-02-12T02:05:38.026Z,93.80
2019-02-12T02:08:04.612Z,93.70
2019-02-12T02:10:31.019Z,93.80
2019-02-12T02:12:57.508Z,93.90
2019-02-12T02:15:24.147Z,94.10
2019-02-12T02:17:50.611Z,94.00
2019-02-12T02:20:17.104Z,93.60
2019-02-12T02:22:43.442Z,93.20
2019-02-12T02:25:10.973Z,93.00
2019-02-12T02:27:37.553Z,93.40
2019-02-12T02:30:06.928Z,94.10
2019-02-12T02:32:33.315Z,93.70
2019-02-12T02:34:59.703Z,93.50
2019-02-12T02:37:26.026Z,94.00
2019-02-12T02:39:52.453Z,94.60
2019-02-12T02:42:18.974Z,94.50
2019-02-12T02:44:45.332Z,94.90
2019-02-12T02:47:11.738Z,94.40
2019-02-12T02:49:38.112Z,94.00
2019-02-12T02:52:04.503Z,94.00
2019-02-12T02:54:30.742Z,93.80
2019-02-12T02:56:57.162Z,93.80
2019-02-12T02:59:23.424Z,93.90
2019-02-12T03:01:49.692Z,94.00
2019-02-12T03:04:15.981Z,94.00
2019-02-12T03:06:42.232Z,93.90
2019-02-12T03:09:08.613Z,93.80
2019-02-12T03:11:34.968Z,94.10
2019-02-12T03:14:01.422Z,94.10
2019-02-12T03:16:27.705Z,94.30
2019-02-12T03:18:53.951Z,94.40
2019-02-12T03:21:20.401Z,94.40
2019-02-12T03:23:46.685Z,94.60
2019-02-12T03:26:13.037Z,95.00
2019-02-12T03:28:39.515Z,95.20
2019-02-12T03:31:05.889Z,95.40
2019-02-12T03:33:32.275Z,95.70
2019-02-12T03:35:58.526Z,95.90
2019-02-12T03:38:24.894Z,96.00
2019-02-12T03:40:51.308Z,96.10
2019-02-12T03:43:17.600Z,96.10
2019-02-12T03:45:43.845Z,95.70
2019-02-12T03:48:10.316Z,95.40
2019-02-12T03:50:36.669Z,95.50
2019-02-12T03:53:03.037Z,95.40
2019-02-12T03:55:29.517Z,95.40
2019-02-12T03:57:56.033Z,95.40
2019-02-12T04:00:22.584Z,95.50
2019-02-12T04:03:00.589Z,95.90
2019-02-12T04:05:27.076Z,95.80
2019-02-12T04:07:53.331Z,95.50
2019-02-12T04:10:19.705Z,95.60
2019-02-12T04:12:46.249Z,95.90
2019-02-12T04:15:12.549Z,96.10
2019-02-12T04:17:38.782Z,96.20
2019-02-12T04:20:05.259Z,96.40
2019-02-12T04:22:31.620Z,96.50
2019-02-12T04:24:58.012Z,96.60
2019-02-12T04:27:24.337Z,96.40
2019-02-12T04:29:50.630Z,96.70
2019-02-12T04:32:17.091Z,96.80
2019-02-12T04:34:43.259Z,96.80
2019-02-12T04:37:09.505Z,96.30
2019-02-12T04:39:35.784Z,96.10
2019-02-12T04:42:02.148Z,95.90
2019-02-12T04:44:28.510Z,95.90
2019-02-12T04:46:54.777Z,96.00
2019-02-12T04:49:21.119Z,95.80
2019-02-12T04:51:47.322Z,95.90
2019-02-12T04:54:13.697Z,96.30
2019-02-12T04:56:40.080Z,96.60
2019-02-12T04:59:06.574Z,96.70
2019-02-12T05:01:32.852Z,96.70
2019-02-12T05:03:59.226Z,96.50
2019-02-12T05:06:25.528Z,96.40
2019-02-12T05:09:11.527Z,96.00
2019-02-12T05:11:38.968Z,96.20
2019-02-12T05:14:05.257Z,96.10
2019-02-12T05:16:31.546Z,96.30
2019-02-12T05:18:57.891Z,96.50
2019-02-12T05:21:24.280Z,96.80
2019-02-12T05:23:50.517Z,96.80
2019-02-12T05:26:16.796Z,96.90
2019-02-12T05:28:43.176Z,96.80
2019-02-12T05:31:09.494Z,96.60
2019-02-12T05:33:35.737Z,96.10
2019-02-12T05:36:02.020Z,95.90
2019-02-12T05:38:28.294Z,95.80
2019-02-12T05:40:54.766Z,95.90
2019-02-12T05:43:21.120Z,95.80
2019-02-12T05:45:47.344Z,95.80
2019-02-12T05:48:13.609Z,95.80
2019-02-12T05:50:39.908Z,95.80
2019-02-12T05:53:06.766Z,95.70
2019-02-12T05:55:33.035Z,95.70
2019-02-12T05:57:59.320Z,95.60
2019-02-12T06:00:27.574Z,95.40
2019-02-12T06:02:53.847Z,95.50
2019-02-12T06:05:24.857Z,95.40
2019-02-12T06:07:51.297Z,95.30
2019-02-12T06:10:17.563Z,95.20
2019-02-12T06:12:43.822Z,95.30
2019-02-12T06:15:10.382Z,95.50
2019-02-12T06:17:36.669Z,95.70
2019-02-12T06:20:04.860Z,95.70
2019-02-12T06:22:31.220Z,95.80
2019-02-12T06:24:57.494Z,95.90
2019-02-12T06:27:23.868Z,95.80
2019-02-12T06:29:50.134Z,95.60
2019-02-12T06:32:17.323Z,95.80
2019-02-12T06:34:43.558Z,96.00
2019-02-12T06:37:09.945Z,96.30
2019-02-12T06:39:36.234Z,96.40
2019-02-12T06:42:02.896Z,96.50
2019-02-12T06:44:29.181Z,96.50
2019-02-12T06:46:55.547Z,96.60
2019-02-12T06:49:21.909Z,96.40
2019-02-12T06:51:48.376Z,96.40
2019-02-12T06:54:14.759Z,96.50
2019-02-12T06:56:41.241Z,96.60
2019-02-12T06:59:07.801Z,96.60
2019-02-12T07:01:34.233Z,96.40
2019-02-12T07:04:00.604Z,96.10
2019-02-12T07:06:42.893Z,96.10
2019-02-12T07:09:24.785Z,96.00
2019-02-12T07:12:11.773Z,95.90
2019-02-12T07:14:57.066Z,96.00
2019-02-12T07:17:42.190Z,95.90
2019-02-12T07:20:18.045Z,95.90
2019-02-12T07:23:21.242Z,95.90
2019-02-12T07:25:49.049Z,96.00
2019-02-12T07:28:28.035Z,96.00
2019-02-12T07:31:13.422Z,96.10
2019-02-12T07:33:46.065Z,96.20
2019-02-12T07:36:30.601Z,96.20
2019-02-12T07:39:09.510Z,96.40
2019-02-12T07:41:45.489Z,96.50
2019-02-12T07:44:18.449Z,96.70
2019-02-12T07:46:56.386Z,96.70
2019-02-12T07:49:29.266Z,96.50
2019-02-12T07:52:17.310Z,96.40
2019-02-12T07:54:53.347Z,96.50
2019-02-12T07:57:35.567Z,96.90
2019-02-12T08:00:08.658Z,97.10
2019-02-12T08:02:44.697Z,97.40
2019-02-12T08:05:45.443Z,97.20
2019-02-12T08:08:18.240Z,97.20
2019-02-12T08:11:03.228Z,97.30
2019-02-12T08:14:06.716Z,97.20
2019-02-12T08:17:09.989Z,97.20
2019-02-12T08:19:54.912Z,97.40
2019-02-12T08:22:41.739Z,97.50
2019-02-12T08:25:26.799Z,97.40
2019-02-12T08:28:05.825Z,97.30
2019-02-12T08:30:39.293Z,97.30
2019-02-12T08:33:18.135Z,97.30
2019-02-12T08:36:03.314Z,97.10
2019-02-12T08:38:33.401Z,96.90
2019-02-12T08:41:06.544Z,96.90
2019-02-12T08:44:00.265Z,96.70
2019-02-12T08:46:57.149Z,96.60
2019-02-12T08:49:33.344Z,96.40
2019-02-12T08:52:06.525Z,95.90
2019-02-12T08:54:36.598Z,95.70
2019-02-12T08:57:33.846Z,95.30
2019-02-12T09:00:03.905Z,94.60
2019-02-12T09:02:50.604Z,94.40
2019-02-12T09:05:38.651Z,94.10
2019-02-12T09:08:17.596Z,93.90
2019-02-12T09:10:59.516Z,93.90
2019-02-12T09:13:41.677Z,93.20
2019-02-12T09:16:17.624Z,92.70
2019-02-12T09:19:02.544Z,92.60
2019-02-12T09:21:52.283Z,92.10
2019-02-12T09:24:34.528Z,92.00
2019-02-12T09:27:10.318Z,90.60
2019-02-12T09:29:40.374Z,90.50
2019-02-12T09:32:48.097Z,89.90
2019-02-12T09:35:18.141Z,90.10
2019-02-12T09:37:48.309Z,89.60
2019-02-12T09:40:27.141Z,90.00
2019-02-12T09:43:16.870Z,90.60
2019-02-12T09:46:07.322Z,90.00
2019-02-12T09:48:52.511Z,89.20
2019-02-12T09:51:37.325Z,87.00
2019-02-12T09:54:26.868Z,85.10
2019-02-12T09:57:03.259Z,85.80
2019-02-12T09:59:39.423Z,85.90
2019-02-12T10:02:21.494Z,77.30
2019-02-12T10:05:09.063Z,80.60
2019-02-12T10:07:42.164Z,81.10
2019-02-12T10:10:27.937Z,82.90
2019-02-12T10:12:58.309Z,80.80
2019-02-12T10:15:42.920Z,76.70
2019-02-12T10:18:28.321Z,74.60
2019-02-12T10:21:14.815Z,72.90
2019-02-12T10:24:18.941Z,71.50
2019-02-12T10:27:14.362Z,73.50
2019-02-12T10:29:53.503Z,70.60
2019-02-12T10:32:19.572Z,66.80
2019-02-12T10:34:45.951Z,64.20
2019-02-12T10:37:12.334Z,62.40
2019-02-12T10:39:39.404Z,64.80
2019-02-12T10:42:05.893Z,65.00
2019-02-12T10:44:32.145Z,64.40
2019-02-12T10:46:58.553Z,65.80
2019-02-12T10:49:24.931Z,66.30
2019-02-12T10:51:53.953Z,67.80
2019-02-12T10:54:27.727Z,67.40
2019-02-12T10:56:48.992Z,68.80
2019-02-12T10:59:15.291Z,69.50
2019-02-12T11:01:43.879Z,71.90
2019-02-12T11:04:10.154Z,68.30
2019-02-12T11:06:38.721Z,63.50
2019-02-12T11:09:05.182Z,64.50
2019-02-12T11:11:31.803Z,65.60
2019-02-12T11:13:58.071Z,65.80
2019-02-12T11:16:24.907Z,66.00
2019-02-12T11:18:51.091Z,64.80
2019-02-12T11:21:17.351Z,65.70
2019-02-12T11:23:43.725Z,64.40
2019-02-12T11:26:10.114Z,61.10
2019-02-12T11:28:36.420Z,62.00
2019-02-12T11:31:03.030Z,62.40
2019-02-12T11:33:29.401Z,63.20
2019-02-12T11:35:55.675Z,60.20
2019-02-12T11:38:24.419Z,55.80
2019-02-12T11:40:50.935Z,56.30
2019-02-12T11:43:17.546Z,59.20
2019-02-12T11:45:43.801Z,56.80
2019-02-12T11:48:12.292Z,55.70
2019-02-12T11:50:38.774Z,54.60
2019-02-12T11:53:05.224Z,55.50
2019-02-12T11:55:31.559Z,55.90
2019-02-12T11:57:57.769Z,57.10
2019-02-12T12:00:28.102Z,57.20
2019-02-12T12:02:54.622Z,55.80
2019-02-12T12:05:22.913Z,56.10
2019-02-12T12:07:49.158Z,57.40
2019-02-12T12:10:15.597Z,56.90
2019-02-12T12:12:41.977Z,54.50
2019-02-12T12:15:17.968Z,54.80
2019-02-12T12:17:47.284Z,54.00
2019-02-12T12:20:14.396Z,54.80
2019-02-12T12:22:40.914Z,52.70
2019-02-12T12:25:09.146Z,53.60
2019-02-12T12:27:35.522Z,56.10
2019-02-12T12:30:01.876Z,55.60
2019-02-12T12:32:32.985Z,56.40
2019-02-12T12:34:59.503Z,56.20
2019-02-12T12:37:28.423Z,56.50
2019-02-12T12:39:54.964Z,55.70
2019-02-12T12:42:21.368Z,54.90
2019-02-12T12:44:47.590Z,53.00
2019-02-12T12:47:13.947Z,54.80
2019-02-12T12:49:40.221Z,54.50
2019-02-12T12:52:06.729Z,54.10
2019-02-12T12:54:34.259Z,53.50
2019-02-12T12:57:00.843Z,52.20
2019-02-12T12:59:27.335Z,53.30
2019-02-12T13:01:53.703Z,54.40
2019-02-12T13:04:20.081Z,52.10
2019-02-12T13:06:46.440Z,52.90
2019-02-12T13:09:12.737Z,53.10
2019-02-12T13:11:43.782Z,54.90
2019-02-12T13:14:10.110Z,53.10
2019-02-12T13:16:36.482Z,51.80
2019-02-12T13:19:05.780Z,51.20
2019-02-12T13:21:35.190Z,52.20
2019-02-12T13:24:05.345Z,52.20
2019-02-12T13:26:31.598Z,49.90
2019-02-12T13:28:57.854Z,50.60
2019-02-12T13:31:24.352Z,50.30
2019-02-12T13:33:50.644Z,49.90
2019-02-12T13:36:17.108Z,50.20
2019-02-12T13:38:43.417Z,50.20
2019-02-12T13:41:12.833Z,50.80
2019-02-12T13:43:39.133Z,50.70
2019-02-12T13:46:05.732Z,51.20
2019-02-12T13:48:32.133Z,51.60
2019-02-12T13:51:01.917Z,51.50
2019-02-12T13:53:28.185Z,50.30
2019-02-12T13:55:57.756Z,49.80
2019-02-12T13:58:24.252Z,48.90
2019-02-12T14:00:50.537Z,51.70
2019-02-12T14:03:22.308Z,51.30
2019-02-12T14:05:45.200Z,51.60
2019-02-12T14:08:11.606Z,51.50
2019-02-12T14:10:37.854Z,51.10
2019-02-12T14:13:04.218Z,51.20
2019-02-12T14:15:32.045Z,50.70
2019-02-12T14:18:05.128Z,51.60
2019-02-12T14:20:31.579Z,52.00
2019-02-12T14:22:59.762Z,52.50
2019-02-12T14:25:26.158Z,50.80
2019-02-12T14:27:52.503Z,51.00
2019-02-12T14:30:20.650Z,50.80
2019-02-12T14:32:48.359Z,49.60
2019-02-12T14:35:14.854Z,50.20
2019-02-12T14:37:41.080Z,50.30
2019-02-12T14:40:16.515Z,49.10
2019-02-12T14:42:42.986Z,49.50
2019-02-12T14:45:14.972Z,50.00
2019-02-12T14:47:41.565Z,50.20
2019-02-12T14:50:10.273Z,50.60
2019-02-12T14:52:37.015Z,51.50
2019-02-12T14:55:03.671Z,50.30
2019-02-12T14:57:29.940Z,51.90
2019-02-12T14:59:56.556Z,51.80
2019-02-12T15:02:22.814Z,52.00
2019-02-12T15:04:49.139Z,51.20
2019-02-12T15:07:15.633Z,50.40
2019-02-12T15:09:42.025Z,50.30
2019-02-12T15:12:08.332Z,49.90
2019-02-12T15:14:34.603Z,49.80
2019-02-12T15:17:00.971Z,49.70
2019-02-12T15:19:27.281Z,50.50
2019-02-12T15:21:53.704Z,50.80
2019-02-12T15:24:20.217Z,51.00
2019-02-12T15:26:50.255Z,51.10
2019-02-12T15:29:16.496Z,50.90
2019-02-12T15:31:42.801Z,51.00
2019-02-12T15:34:09.214Z,51.30
2019-02-12T15:36:35.558Z,53.00
2019-02-12T15:39:04.552Z,52.60
2019-02-12T15:41:30.823Z,53.40
2019-02-12T15:43:57.199Z,53.60
2019-02-12T15:46:23.641Z,53.50
2019-02-12T15:48:50.104Z,53.70
2019-02-12T15:51:16.348Z,52.40
2019-02-12T15:53:42.725Z,52.30
2019-02-12T15:56:09.202Z,53.30
2019-02-12T15:58:35.517Z,54.20
2019-02-12T16:01:02.349Z,54.50
2019-02-12T16:03:29.870Z,53.10
2019-02-12T16:05:57.188Z,54.10
2019-02-12T16:08:24.429Z,55.30
2019-02-12T16:10:50.693Z,55.60
2019-02-12T16:13:16.928Z,55.80
2019-02-12T16:15:45.192Z,56.10
2019-02-12T16:18:11.590Z,56.20
2019-02-12T16:20:37.929Z,56.20
2019-02-12T16:23:04.173Z,56.20
2019-02-12T16:25:30.550Z,56.70
2019-02-12T16:27:57.066Z,56.70
2019-02-12T16:30:23.409Z,56.70
2019-02-12T16:32:49.799Z,56.70
2019-02-12T16:35:16.822Z,57.20
2019-02-12T16:37:43.272Z,57.10
2019-02-12T16:40:11.667Z,57.10
2019-02-12T16:42:38.130Z,57.20
2019-02-12T16:45:10.632Z,56.70
2019-02-12T16:47:37.002Z,56.90
2019-02-12T16:50:05.791Z,57.10
2019-02-12T16:52:32.101Z,57.20
2019-02-12T16:54:58.484Z,57.20
2019-02-12T16:57:27.238Z,57.20
2019-02-12T16:59:53.750Z,57.80
2019-02-12T17:02:20.017Z,58.40
2019-02-12T17:04:46.448Z,58.60
2019-02-12T17:07:12.692Z,59.00
2019-02-12T17:09:39.098Z,59.80
2019-02-12T17:12:05.409Z,60.50
2019-02-12T17:14:31.818Z,61.00
2019-02-12T17:16:58.325Z,60.80
2019-02-12T17:19:24.693Z,60.50
2019-02-12T17:21:50.974Z,60.70
2019-02-12T17:24:17.567Z,61.20
2019-02-12T17:26:43.760Z,62.00
2019-02-12T17:29:10.114Z,61.80
2019-02-12T17:31:36.559Z,61.90
2019-02-12T17:34:02.962Z,62.40
2019-02-12T17:36:29.322Z,62.70
2019-02-12T17:38:55.603Z,63.10
2019-02-12T17:41:22.075Z,63.40
2019-02-12T17:43:48.510Z,63.70
2019-02-12T17:46:15.918Z,63.10
2019-02-12T17:48:42.467Z,63.20
2019-02-12T17:51:08.730Z,62.80
2019-02-12T17:53:35.241Z,62.60
2019-02-12T17:56:01.735Z,62.50
2019-02-12T17:58:28.281Z,63.10
2019-02-12T18:00:54.694Z,63.10
2019-02-12T18:03:20.937Z,62.70
2019-02-12T18:05:47.257Z,62.50
2019-02-12T18:08:13.529Z,62.60
2019-02-12T18:10:39.998Z,63.10
2019-02-12T18:13:06.417Z,63.80
2019-02-12T18:15:32.782Z,64.60
2019-02-12T18:17:59.125Z,64.30
2019-02-12T18:20:26.859Z,64.40
2019-02-12T18:22:53.335Z,64.60
2019-02-12T18:25:19.676Z,64.80
2019-02-12T18:27:46.041Z,64.10
2019-02-12T18:30:16.200Z,64.20
2019-02-12T18:32:42.834Z,64.90
2019-02-12T18:35:09.177Z,64.90
2019-02-12T18:37:35.510Z,64.70
2019-02-12T18:40:04.083Z,66.00
2019-02-12T18:42:30.355Z,65.70
2019-02-12T18:44:56.874Z,66.30
2019-02-12T18:47:23.363Z,66.70
2019-02-12T18:49:49.829Z,67.50
2019-02-12T18:52:16.222Z,67.70
2019-02-12T18:54:42.496Z,68.10
2019-02-12T18:57:08.876Z,67.60
2019-02-12T18:59:35.515Z,67.00
2019-02-12T19:02:01.976Z,66.90
2019-02-12T19:04:28.381Z,67.40
2019-02-12T19:06:54.964Z,67.40
2019-02-12T19:09:21.458Z,67.00
2019-02-12T19:11:54.551Z,67.10
2019-02-12T19:14:23.119Z,67.40
2019-02-12T19:16:54.550Z,67.70
2019-02-12T19:19:21.083Z,67.70
2019-02-12T19:21:47.471Z,68.10
2019-02-12T19:24:13.855Z,68.70
2019-02-12T19:26:40.346Z,69.50
2019-02-12T19:29:06.776Z,69.70
2019-02-12T19:31:33.104Z,70.60
2019-02-12T19:33:59.620Z,70.70
2019-02-12T19:36:25.902Z,70.80
2019-02-12T19:38:52.626Z,71.20
2019-02-12T19:41:18.862Z,71.40
2019-02-12T19:43:47.952Z,71.00
2019-02-12T19:46:14.772Z,71.20
2019-02-12T19:48:41.157Z,71.50
2019-02-12T19:51:07.534Z,71.50
2019-02-12T19:53:34.082Z,70.70
2019-02-12T19:56:00.799Z,71.00
2019-02-12T19:58:47.192Z,71.10
2019-02-12T20:01:13.613Z,71.10
2019-02-12T20:03:40.239Z,72.30
2019-02-12T20:06:06.643Z,72.10
2019-02-12T20:08:33.094Z,72.90
2019-02-12T20:10:59.438Z,73.00
2019-02-12T20:13:25.995Z,72.60
2019-02-12T20:15:52.382Z,72.60
2019-02-12T20:18:20.252Z,72.90
2019-02-12T20:20:46.684Z,73.70
2019-02-12T20:23:13.060Z,74.90
2019-02-12T20:25:39.477Z,75.40
2019-02-12T20:28:06.051Z,75.90
2019-02-12T20:30:32.459Z,75.70
2019-02-12T20:32:58.955Z,75.40
2019-02-12T20:35:25.206Z,75.90
2019-02-12T20:37:53.499Z,74.90
2019-02-12T20:40:20.109Z,74.90
2019-02-12T20:42:46.451Z,74.90
2019-02-12T20:45:14.429Z,75.00
2019-02-12T20:47:40.976Z,75.10
2019-02-12T20:50:14.069Z,75.10
2019-02-12T20:52:40.638Z,74.90
2019-02-12T20:55:07.929Z,74.60
2019-02-12T20:57:34.371Z,75.20
2019-02-12T21:00:00.826Z,75.80
2019-02-12T21:02:27.077Z,76.00
2019-02-12T21:04:53.482Z,76.30
2019-02-12T21:07:19.716Z,75.90
2019-02-12T21:09:46.327Z,76.40
2019-02-12T21:12:12.570Z,77.30
2019-02-12T21:14:38.961Z,77.70
2019-02-12T21:17:05.404Z,76.00
2019-02-12T21:19:31.678Z,75.00
2019-02-12T21:21:58.035Z,75.20
2019-02-12T21:24:24.514Z,75.60
2019-02-12T21:26:51.066Z,76.00
2019-02-12T21:29:17.435Z,76.50
2019-02-12T21:31:43.701Z,77.20
2019-02-12T21:34:10.302Z,77.20
2019-02-12T21:36:36.680Z,77.80
2019-02-12T21:39:05.083Z,77.60
2019-02-12T21:41:31.708Z,77.50
2019-02-12T21:43:58.062Z,78.00
2019-02-12T21:46:24.521Z,77.10
2019-02-12T21:48:51.087Z,77.40
2019-02-12T21:51:17.419Z,78.10
2019-02-12T21:53:43.748Z,78.20
2019-02-12T21:56:10.111Z,77.80
2019-02-12T21:58:36.346Z,77.50
2019-02-12T22:01:02.870Z,78.00
2019-02-12T22:03:30.495Z,78.70
2019-02-12T22:05:56.899Z,79.60
2019-02-12T22:08:23.342Z,81.30
2019-02-12T22:10:49.662Z,81.30
2019-02-12T22:13:16.073Z,80.20
2019-02-12T22:15:42.535Z,79.90
2019-02-12T22:18:08.813Z,79.90
2019-02-12T22:20:35.078Z,80.10
2019-02-12T22:23:02.065Z,80.30
2019-02-12T22:25:28.455Z,80.40
2019-02-12T22:27:54.734Z,80.30
2019-02-12T22:30:23.369Z,79.60
2019-02-12T22:32:50.043Z,78.80
2019-02-12T22:35:16.666Z,78.60
2019-02-12T22:37:43.010Z,78.90
2019-02-12T22:40:13.950Z,79.10
2019-02-12T22:42:40.356Z,79.60
2019-02-12T22:45:09.740Z,79.40
2019-02-12T22:47:36.227Z,79.30
2019-02-12T22:50:07.245Z,79.40
2019-02-12T22:52:33.709Z,80.20
2019-02-12T22:54:59.929Z,81.00
2019-02-12T22:57:26.406Z,80.00
2019-02-12T22:59:52.924Z,79.90
2019-02-12T23:02:19.272Z,79.10
2019-02-12T23:04:45.662Z,79.10
2019-02-12T23:07:12.161Z,79.70
2019-02-12T23:09:48.177Z,80.20
2019-02-12T23:12:14.901Z,79.30
2019-02-12T23:14:41.264Z,79.80
2019-02-12T23:17:07.853Z,80.20
2019-02-12T23:19:34.299Z,80.80
2019-02-12T23:22:02.494Z,81.00
2019-02-12T23:24:48.268Z,80.00
2019-02-12T23:27:14.530Z,79.00
2019-02-12T23:29:40.922Z,79.70
2019-02-12T23:32:07.389Z,79.90
2019-02-12T23:34:33.990Z,80.70
2019-02-12T23:37:00.374Z,80.90
2019-02-12T23:39:26.647Z,81.00
2019-02-12T23:41:53.105Z,80.80
2019-02-12T23:44:19.502Z,81.40
2019-02-12T23:46:45.769Z,81.00
2019-02-12T23:49:12.194Z,80.00
2019-02-12T23:51:38.761Z,80.20
2019-02-12T23:54:05.091Z,80.10
2019-02-12T23:56:31.614Z,79.80
2019-02-12T23:59:00.074Z,79.70
